createdAt,value
2018-02-13T00:00:08.534Z,13.20
2018-02-13T00:01:08.522Z,13.20
2018-02-13T00:02:08.511Z,10.70
2018-02-13T00:03:08.505Z,12.10
2018-02-13T00:04:08.493Z,13.90
2018-02-13T00:05:08.482Z,13.60
2018-02-13T00:06:08.473Z,11.90
2018-02-13T00:07:08.466Z,11.20
2018-02-13T00:08:08.456Z,9.40
2018-02-13T00:09:08.444Z,13.20
2018-02-13T00:10:08.437Z,12.30
2018-02-13T00:11:08.427Z,12.40
2018-02-13T00:12:08.417Z,11.60
2018-02-13T00:13:08.459Z,14.20
2018-02-13T00:14:08.405Z,12.70
2018-02-13T00:15:08.407Z,13.80
2018-02-13T00:16:08.381Z,10.10
2018-02-13T00:17:08.370Z,13.60
2018-02-13T00:18:08.368Z,10.00
2018-02-13T00:19:08.358Z,12.80
2018-02-13T00:20:08.343Z,10.80
2018-02-13T00:21:08.334Z,10.50
2018-02-13T00:22:08.374Z,11.80
2018-02-13T00:23:08.316Z,10.80
2018-02-13T00:24:08.307Z,13.60
2018-02-13T00:25:08.296Z,14.70
2018-02-13T00:26:08.289Z,10.60
2018-02-13T00:27:08.279Z,15.60
2018-02-13T00:28:08.270Z,11.30
2018-02-13T00:29:08.298Z,11.60
2018-02-13T00:30:08.258Z,11.40
2018-02-13T00:31:08.241Z,13.40
2018-02-13T00:32:08.269Z,14.50
2018-02-13T00:33:08.222Z,10.50
2018-02-13T00:34:08.212Z,13.80
2018-02-13T00:35:08.203Z,14.00
2018-02-13T00:36:08.193Z,11.50
2018-02-13T00:37:08.186Z,12.20
2018-02-13T00:38:08.175Z,11.30
2018-02-13T00:39:08.165Z,10.60
2018-02-13T00:40:08.162Z,13.90
2018-02-13T00:41:08.147Z,13.70
2018-02-13T00:42:08.142Z,13.30
2018-02-13T00:43:08.129Z,10.30
2018-02-13T00:44:08.122Z,12.40
2018-02-13T00:45:08.109Z,12.60
2018-02-13T00:46:08.100Z,14.50
2018-02-13T00:47:08.099Z,12.70
2018-02-13T00:48:08.086Z,13.50
2018-02-13T00:49:08.074Z,13.10
2018-02-13T00:50:08.065Z,15.80
2018-02-13T00:51:08.056Z,11.30
2018-02-13T00:52:08.050Z,11.80
2018-02-13T00:53:08.038Z,12.80
2018-02-13T00:54:08.031Z,12.30
2018-02-13T00:55:08.019Z,16.70
2018-02-13T00:56:08.020Z,12.50
2018-02-13T00:57:08.007Z,13.80
2018-02-13T00:58:07.992Z,11.30
2018-02-13T00:59:07.982Z,11.50
2018-02-13T01:00:07.975Z,11.80
2018-02-13T01:01:07.964Z,12.70
2018-02-13T01:02:07.956Z,13.10
2018-02-13T01:03:07.947Z,13.30
2018-02-13T01:04:07.940Z,16.40
2018-02-13T01:05:07.928Z,12.20
2018-02-13T01:06:07.918Z,13.10
2018-02-13T01:07:07.910Z,11.90
2018-02-13T01:08:07.902Z,11.40
2018-02-13T01:09:07.894Z,11.80
2018-02-13T01:10:07.883Z,14.70
2018-02-13T01:11:07.874Z,14.90
2018-02-13T01:12:07.865Z,12.80
2018-02-13T01:13:07.853Z,13.10
2018-02-13T01:14:07.845Z,9.70
2018-02-13T01:15:07.837Z,12.40
2018-02-13T01:16:07.829Z,13.70
2018-02-13T01:17:07.818Z,14.00
2018-02-13T01:18:07.808Z,14.00
2018-02-13T01:19:07.799Z,12.10
2018-02-13T01:20:07.789Z,11.30
2018-02-13T01:21:07.780Z,12.30
2018-02-13T01:22:07.771Z,11.50
2018-02-13T01:23:07.761Z,10.70
2018-02-13T01:24:07.752Z,12.70
2018-02-13T01:25:07.747Z,12.20
2018-02-13T01:26:07.735Z,11.10
2018-02-13T01:27:07.724Z,12.00
2018-02-13T01:28:07.736Z,12.10
2018-02-13T01:29:07.705Z,10.30
2018-02-13T01:30:07.694Z,11.10
2018-02-13T01:31:07.687Z,12.90
2018-02-13T01:32:07.677Z,15.40
2018-02-13T01:33:07.666Z,12.50
2018-02-13T01:34:07.657Z,8.90
2018-02-13T01:35:07.648Z,12.30
2018-02-13T01:36:07.642Z,12.00
2018-02-13T01:37:07.633Z,11.30
2018-02-13T01:38:07.619Z,12.00
2018-02-13T01:39:07.610Z,11.80
2018-02-13T01:40:07.601Z,13.20
2018-02-13T01:41:07.591Z,9.50
2018-02-13T01:42:07.580Z,11.60
2018-02-13T01:43:07.574Z,13.50
2018-02-13T01:44:07.563Z,13.00
2018-02-13T01:45:07.552Z,11.00
2018-02-13T01:46:07.543Z,12.40
2018-02-13T01:47:07.534Z,12.20
2018-02-13T01:48:07.523Z,11.20
2018-02-13T01:49:07.516Z,13.30
2018-02-13T01:50:07.504Z,11.80
2018-02-13T01:51:07.495Z,11.60
2018-02-13T01:52:07.485Z,14.60
2018-02-13T01:53:07.475Z,10.70
2018-02-13T01:54:07.465Z,11.90
2018-02-13T01:55:07.459Z,17.80
2018-02-13T01:56:07.448Z,13.70
2018-02-13T01:57:07.435Z,11.10
2018-02-13T01:58:07.426Z,10.50
2018-02-13T01:59:07.417Z,15.10
2018-02-13T02:00:07.413Z,12.50
2018-02-13T02:01:07.412Z,13.90
2018-02-13T02:02:07.389Z,9.70
2018-02-13T02:03:07.379Z,10.30
2018-02-13T02:04:07.383Z,13.50
2018-02-13T02:05:07.362Z,12.80
2018-02-13T02:06:07.351Z,14.10
2018-02-13T02:07:07.344Z,16.00
2018-02-13T02:08:07.333Z,11.30
2018-02-13T02:09:07.322Z,12.20
2018-02-13T02:10:07.313Z,11.70
2018-02-13T02:11:07.309Z,9.90
2018-02-13T02:12:07.300Z,10.30
2018-02-13T02:13:07.285Z,11.70
2018-02-13T02:14:07.275Z,12.40
2018-02-13T02:15:07.268Z,10.50
2018-02-13T02:16:07.261Z,11.60
2018-02-13T02:17:07.250Z,11.20
2018-02-13T02:18:07.241Z,10.90
2018-02-13T02:19:07.227Z,10.60
2018-02-13T02:20:07.219Z,12.20
2018-02-13T02:21:07.208Z,11.10
2018-02-13T02:22:07.199Z,13.90
2018-02-13T02:23:07.190Z,12.90
2018-02-13T02:24:07.185Z,12.40
2018-02-13T02:25:07.173Z,11.80
2018-02-13T02:26:07.163Z,13.60
2018-02-13T02:27:07.152Z,12.50
2018-02-13T02:28:07.143Z,10.60
2018-02-13T02:29:07.133Z,13.00
2018-02-13T02:30:07.130Z,12.60
2018-02-13T02:31:07.114Z,10.30
2018-02-13T02:32:07.107Z,11.10
2018-02-13T02:33:07.095Z,14.50
2018-02-13T02:34:07.095Z,12.20
2018-02-13T02:35:07.081Z,10.20
2018-02-13T02:36:07.075Z,10.10
2018-02-13T02:37:07.061Z,10.50
2018-02-13T02:38:07.050Z,12.00
2018-02-13T02:39:07.053Z,12.20
2018-02-13T02:40:07.035Z,11.50
2018-02-13T02:41:07.019Z,9.90
2018-02-13T02:42:07.012Z,13.40
2018-02-13T02:43:07.000Z,12.50
2018-02-13T02:44:06.994Z,11.40
2018-02-13T02:45:06.982Z,13.20
2018-02-13T02:46:06.976Z,15.70
2018-02-13T02:47:06.964Z,11.20
2018-02-13T02:48:06.954Z,12.10
2018-02-13T02:49:06.944Z,15.70
2018-02-13T02:50:06.934Z,13.30
2018-02-13T02:51:06.926Z,15.70
2018-02-13T02:52:06.914Z,13.80
2018-02-13T02:53:06.907Z,14.20
2018-02-13T02:54:06.899Z,14.60
2018-02-13T02:55:06.886Z,15.20
2018-02-13T02:56:06.878Z,11.90
2018-02-13T02:57:06.868Z,14.20
2018-02-13T02:58:06.859Z,13.30
2018-02-13T02:59:06.850Z,11.80
2018-02-13T03:00:06.842Z,14.90
2018-02-13T03:01:06.833Z,14.90
2018-02-13T03:02:06.821Z,13.70
2018-02-13T03:03:06.816Z,14.40
2018-02-13T03:04:06.803Z,14.60
2018-02-13T03:05:06.794Z,14.30
2018-02-13T03:06:06.785Z,13.40
2018-02-13T03:07:06.778Z,12.40
2018-02-13T03:08:06.770Z,16.20
2018-02-13T03:09:06.756Z,14.70
2018-02-13T03:10:06.747Z,16.70
2018-02-13T03:11:06.738Z,15.00
2018-02-13T03:12:06.736Z,12.80
2018-02-13T03:13:06.747Z,13.10
2018-02-13T03:14:06.712Z,12.10
2018-02-13T03:15:06.701Z,13.40
2018-02-13T03:16:06.694Z,12.20
2018-02-13T03:17:06.683Z,14.80
2018-02-13T03:18:06.673Z,14.20
2018-02-13T03:19:06.664Z,14.60
2018-02-13T03:20:06.671Z,11.60
2018-02-13T03:21:07.216Z,13.60
2018-02-13T03:22:07.216Z,12.70
2018-02-13T03:23:06.628Z,14.10
2018-02-13T03:24:06.619Z,12.70
2018-02-13T03:25:06.612Z,13.00
2018-02-13T03:26:06.604Z,13.30
2018-02-13T03:27:06.590Z,12.10
2018-02-13T03:28:06.582Z,11.80
2018-02-13T03:29:06.574Z,11.20
2018-02-13T03:30:06.564Z,12.40
2018-02-13T03:31:06.559Z,14.70
2018-02-13T03:32:06.560Z,11.70
2018-02-13T03:33:06.534Z,15.50
2018-02-13T03:34:06.529Z,13.50
2018-02-13T03:35:06.517Z,11.90
2018-02-13T03:36:06.507Z,12.30
2018-02-13T03:37:06.501Z,14.20
2018-02-13T03:38:06.490Z,16.90
2018-02-13T03:39:06.481Z,11.80
2018-02-13T03:40:06.471Z,14.60
2018-02-13T03:41:06.461Z,11.90
2018-02-13T03:42:06.454Z,10.90
2018-02-13T03:43:06.444Z,12.50
2018-02-13T03:44:06.436Z,12.00
2018-02-13T03:45:06.426Z,13.10
2018-02-13T03:46:06.416Z,12.50
2018-02-13T03:47:06.412Z,10.40
2018-02-13T03:48:06.398Z,12.80
2018-02-13T03:49:06.386Z,11.90
2018-02-13T03:50:06.378Z,14.00
2018-02-13T03:51:06.369Z,11.50
2018-02-13T03:52:06.360Z,12.00
2018-02-13T03:53:06.349Z,10.80
2018-02-13T03:54:06.347Z,13.50
2018-02-13T03:55:06.332Z,13.30
2018-02-13T03:56:06.323Z,14.40
2018-02-13T03:57:06.312Z,11.60
2018-02-13T03:58:06.304Z,14.30
2018-02-13T03:59:06.298Z,14.80
2018-02-13T04:00:06.289Z,12.60
2018-02-13T04:01:06.277Z,12.70
2018-02-13T04:02:06.265Z,15.40
2018-02-13T04:03:06.257Z,12.80
2018-02-13T04:04:06.248Z,12.70
2018-02-13T04:05:06.240Z,12.70
2018-02-13T04:06:06.228Z,12.50
2018-02-13T04:07:06.221Z,14.20
2018-02-13T04:08:06.211Z,14.70
2018-02-13T04:09:06.203Z,9.70
2018-02-13T04:10:06.191Z,14.80
2018-02-13T04:11:06.182Z,13.90
2018-02-13T04:12:06.174Z,12.80
2018-02-13T04:13:06.163Z,11.30
2018-02-13T04:14:06.152Z,13.20
2018-02-13T04:15:06.154Z,14.20
2018-02-13T04:16:06.134Z,10.50
2018-02-13T04:17:06.126Z,10.50
2018-02-13T04:18:33.739Z,10.30
2018-02-13T04:19:06.122Z,10.80
2018-02-13T04:20:06.097Z,9.60
2018-02-13T04:21:06.087Z,14.40
2018-02-13T04:22:06.078Z,11.30
2018-02-13T04:23:06.070Z,10.60
2018-02-13T04:24:06.060Z,14.20
2018-02-13T04:25:06.058Z,13.60
2018-02-13T04:26:06.043Z,13.00
2018-02-13T04:27:06.083Z,11.70
2018-02-13T04:28:06.021Z,11.90
2018-02-13T04:29:06.012Z,10.10
2018-02-13T04:30:06.003Z,11.30
2018-02-13T04:31:05.994Z,14.40
2018-02-13T04:32:05.989Z,12.70
2018-02-13T04:33:05.974Z,11.20
2018-02-13T04:34:05.968Z,12.90
2018-02-13T04:35:05.954Z,12.20
2018-02-13T04:36:05.947Z,14.00
2018-02-13T04:37:05.935Z,12.20
2018-02-13T04:38:05.934Z,12.60
2018-02-13T04:39:05.923Z,12.40
2018-02-13T04:40:05.908Z,13.10
2018-02-13T04:41:05.898Z,12.40
2018-02-13T04:42:05.890Z,13.70
2018-02-13T04:43:05.879Z,14.60
2018-02-13T04:44:05.869Z,15.80
2018-02-13T04:45:05.863Z,12.70
2018-02-13T04:46:05.851Z,14.40
2018-02-13T04:47:05.843Z,14.50
2018-02-13T04:48:05.833Z,13.70
2018-02-13T04:49:05.823Z,13.40
2018-02-13T04:50:05.820Z,13.80
2018-02-13T04:51:05.804Z,14.00
2018-02-13T04:52:05.795Z,16.90
2018-02-13T04:53:05.786Z,15.40
2018-02-13T04:54:05.776Z,12.30
2018-02-13T04:55:05.767Z,14.60
2018-02-13T04:56:05.759Z,14.10
2018-02-13T04:57:05.749Z,12.80
2018-02-13T04:58:05.742Z,11.90
2018-02-13T04:59:05.732Z,15.30
2018-02-13T05:00:05.722Z,14.00
2018-02-13T05:01:05.716Z,14.50
2018-02-13T05:02:05.703Z,13.30
2018-02-13T05:03:05.695Z,14.90
2018-02-13T05:04:05.771Z,13.50
2018-02-13T05:05:05.676Z,14.30
2018-02-13T05:06:05.668Z,17.60
2018-02-13T05:07:05.657Z,13.40
2018-02-13T05:08:05.650Z,12.80
2018-02-13T05:09:05.639Z,14.10
2018-02-13T05:10:05.633Z,13.70
2018-02-13T05:11:05.621Z,16.40
2018-02-13T05:12:05.615Z,13.30
2018-02-13T05:13:05.603Z,12.10
2018-02-13T05:14:05.598Z,11.50
2018-02-13T05:15:05.586Z,15.20
2018-02-13T05:16:05.578Z,12.60
2018-02-13T05:17:05.566Z,15.80
2018-02-13T05:18:05.560Z,13.60
2018-02-13T05:19:05.554Z,13.80
2018-02-13T05:20:05.541Z,14.70
2018-02-13T05:21:05.535Z,13.40
2018-02-13T05:22:05.524Z,17.70
2018-02-13T05:23:05.514Z,12.90
2018-02-13T05:24:05.505Z,16.80
2018-02-13T05:25:05.497Z,16.80
2018-02-13T05:26:05.495Z,14.40
2018-02-13T05:27:05.479Z,18.10
2018-02-13T05:28:05.469Z,17.10
2018-02-13T05:29:05.458Z,17.00
2018-02-13T05:30:05.449Z,16.50
2018-02-13T05:31:05.441Z,16.90
2018-02-13T05:32:05.433Z,15.50
2018-02-13T05:33:05.424Z,13.90
2018-02-13T05:34:05.416Z,13.80
2018-02-13T05:35:05.405Z,13.30
2018-02-13T05:36:05.397Z,15.10
2018-02-13T05:37:05.396Z,16.40
2018-02-13T05:38:05.379Z,16.90
2018-02-13T05:39:05.370Z,17.90
2018-02-13T05:40:05.361Z,13.90
2018-02-13T05:41:05.355Z,13.10
2018-02-13T05:42:05.343Z,14.50
2018-02-13T05:43:05.334Z,14.60
2018-02-13T05:44:05.326Z,15.60
2018-02-13T05:45:05.315Z,13.70
2018-02-13T05:46:05.306Z,13.20
2018-02-13T05:47:05.297Z,14.10
2018-02-13T05:48:05.289Z,12.30
2018-02-13T05:49:05.280Z,15.10
2018-02-13T05:50:05.310Z,13.90
2018-02-13T05:51:05.261Z,14.00
2018-02-13T05:52:05.252Z,15.30
2018-02-13T05:53:05.249Z,13.10
2018-02-13T05:54:05.242Z,16.40
2018-02-13T05:55:05.223Z,14.80
2018-02-13T05:56:05.226Z,16.50
2018-02-13T05:57:05.206Z,16.10
2018-02-13T05:58:05.201Z,16.10
2018-02-13T05:59:06.154Z,16.30
2018-02-13T06:00:06.431Z,16.20
2018-02-13T06:01:06.175Z,15.90
2018-02-13T06:02:06.403Z,15.80
2018-02-13T06:03:05.151Z,16.40
2018-02-13T06:04:05.142Z,18.00
2018-02-13T06:05:05.133Z,15.50
2018-02-13T06:06:05.122Z,13.10
2018-02-13T06:07:05.113Z,15.40
2018-02-13T06:08:05.104Z,16.80
2018-02-13T06:09:05.092Z,14.20
2018-02-13T06:10:05.087Z,13.60
2018-02-13T06:11:05.075Z,14.80
2018-02-13T06:12:05.066Z,13.80
2018-02-13T06:13:05.058Z,14.80
2018-02-13T06:14:05.046Z,15.10
2018-02-13T06:15:05.037Z,16.00
2018-02-13T06:16:05.027Z,16.40
2018-02-13T06:17:05.016Z,13.10
2018-02-13T06:18:05.011Z,18.20
2018-02-13T06:19:04.997Z,14.50
2018-02-13T06:20:04.989Z,16.30
2018-02-13T06:21:04.979Z,17.70
2018-02-13T06:22:04.974Z,15.10
2018-02-13T06:23:04.963Z,18.10
2018-02-13T06:24:04.951Z,18.50
2018-02-13T06:25:04.944Z,15.70
2018-02-13T06:26:04.935Z,15.70
2018-02-13T06:27:04.926Z,16.80
2018-02-13T06:28:04.918Z,19.40
2018-02-13T06:29:04.904Z,16.10
2018-02-13T06:30:04.894Z,14.70
2018-02-13T06:31:04.886Z,14.70
2018-02-13T06:32:04.876Z,16.00
2018-02-13T06:33:04.868Z,15.00
2018-02-13T06:34:04.857Z,15.50
2018-02-13T06:35:04.848Z,15.50
2018-02-13T06:36:04.838Z,14.70
2018-02-13T06:37:04.828Z,14.90
2018-02-13T06:38:04.820Z,16.10
2018-02-13T06:39:04.810Z,16.00
2018-02-13T06:40:04.802Z,13.10
2018-02-13T06:41:04.791Z,16.90
2018-02-13T06:42:04.795Z,20.70
2018-02-13T06:43:04.773Z,16.00
2018-02-13T06:44:04.772Z,16.10
2018-02-13T06:45:04.752Z,16.00
2018-02-13T06:46:04.746Z,19.50
2018-02-13T06:47:04.733Z,15.00
2018-02-13T06:48:04.724Z,14.90
2018-02-13T06:49:04.715Z,17.00
2018-02-13T06:50:04.755Z,16.00
2018-02-13T06:51:04.702Z,19.20
2018-02-13T06:52:04.686Z,13.90
2018-02-13T06:53:04.676Z,18.10
2018-02-13T06:54:04.667Z,17.40
2018-02-13T06:55:04.658Z,16.60
2018-02-13T06:56:04.650Z,16.10
2018-02-13T06:57:04.638Z,21.50
2018-02-13T06:58:04.631Z,17.20
2018-02-13T06:59:04.624Z,18.30
2018-02-13T07:00:04.611Z,17.10
2018-02-13T07:01:04.601Z,16.70
2018-02-13T07:02:04.598Z,20.30
2018-02-13T07:03:04.583Z,16.70
2018-02-13T07:04:04.635Z,20.10
2018-02-13T07:05:04.563Z,15.10
2018-02-13T07:06:04.566Z,17.20
2018-02-13T07:07:04.544Z,17.20
2018-02-13T07:08:04.537Z,15.80
2018-02-13T07:09:04.524Z,14.20
2018-02-13T07:10:04.515Z,19.00
2018-02-13T07:11:04.509Z,17.20
2018-02-13T07:12:04.498Z,23.50
2018-02-13T07:13:04.488Z,21.10
2018-02-13T07:14:04.479Z,18.10
2018-02-13T07:15:04.469Z,17.20
2018-02-13T07:16:04.465Z,19.60
2018-02-13T07:17:04.449Z,18.50
2018-02-13T07:18:04.440Z,18.90
2018-02-13T07:19:04.436Z,17.70
2018-02-13T07:20:04.426Z,19.70
2018-02-13T07:21:04.411Z,20.10
2018-02-13T07:22:04.401Z,25.30
2018-02-13T07:23:04.390Z,20.00
2018-02-13T07:24:04.383Z,20.90
2018-02-13T07:25:04.371Z,24.00
2018-02-13T07:26:04.374Z,20.30
2018-02-13T07:27:04.355Z,16.70
2018-02-13T07:28:04.343Z,17.80
2018-02-13T07:29:04.334Z,18.40
2018-02-13T07:30:04.351Z,18.00
2018-02-13T07:31:04.316Z,18.00
2018-02-13T07:32:04.307Z,19.80
2018-02-13T07:33:04.298Z,18.40
2018-02-13T07:34:04.288Z,16.70
2018-02-13T07:35:04.279Z,19.30
2018-02-13T07:36:04.268Z,17.70
2018-02-13T07:37:04.291Z,18.20
2018-02-13T07:38:04.263Z,16.80
2018-02-13T07:39:04.238Z,16.10
2018-02-13T07:40:04.290Z,17.90
2018-02-13T07:41:04.220Z,18.40
2018-02-13T07:42:04.208Z,20.90
2018-02-13T07:43:04.198Z,17.70
2018-02-13T07:44:04.193Z,15.90
2018-02-13T07:45:04.180Z,20.20
2018-02-13T07:46:04.169Z,20.10
2018-02-13T07:47:04.160Z,17.90
2018-02-13T07:48:04.153Z,20.50
2018-02-13T07:49:04.143Z,16.70
2018-02-13T07:50:04.139Z,17.80
2018-02-13T07:51:04.120Z,15.60
2018-02-13T07:52:04.114Z,17.10
2018-02-13T07:53:04.101Z,18.00
2018-02-13T07:54:04.318Z,21.90
2018-02-13T07:55:04.082Z,20.50
2018-02-13T07:56:04.080Z,17.30
2018-02-13T07:57:04.062Z,17.60
2018-02-13T07:58:04.062Z,19.00
2018-02-13T07:59:04.049Z,16.30
2018-02-13T08:00:04.563Z,18.20
2018-02-13T08:01:04.032Z,15.60
2018-02-13T08:02:04.020Z,18.70
2018-02-13T08:03:04.053Z,17.90
2018-02-13T08:04:03.996Z,17.90
2018-02-13T08:05:03.985Z,19.60
2018-02-13T08:06:03.976Z,18.90
2018-02-13T08:07:03.968Z,21.30
2018-02-13T08:08:03.963Z,20.70
2018-02-13T08:09:03.947Z,21.00
2018-02-13T08:10:03.943Z,19.00
2018-02-13T08:11:03.929Z,20.70
2018-02-13T08:12:03.920Z,23.30
2018-02-13T08:13:03.918Z,26.20
2018-02-13T08:14:03.901Z,19.40
2018-02-13T08:15:03.904Z,18.10
2018-02-13T08:16:03.884Z,17.40
2018-02-13T08:17:03.878Z,19.50
2018-02-13T08:18:03.863Z,20.50
2018-02-13T08:19:03.854Z,18.80
2018-02-13T08:20:03.848Z,17.10
2018-02-13T08:21:03.834Z,20.90
2018-02-13T08:22:03.823Z,18.70
2018-02-13T08:23:03.817Z,16.50
2018-02-13T08:24:03.805Z,17.50
2018-02-13T08:25:03.799Z,21.10
2018-02-13T08:26:03.789Z,18.20
2018-02-13T08:27:03.777Z,16.60
2018-02-13T08:28:03.768Z,17.50
2018-02-13T08:29:03.757Z,16.90
2018-02-13T08:30:03.748Z,21.30
2018-02-13T08:31:03.739Z,16.00
2018-02-13T08:32:03.731Z,17.40
2018-02-13T08:33:03.720Z,17.30
2018-02-13T08:34:03.711Z,22.10
2018-02-13T08:35:03.702Z,18.00
2018-02-13T08:36:03.692Z,19.00
2018-02-13T08:37:03.683Z,19.80
2018-02-13T08:38:03.674Z,20.00
2018-02-13T08:39:03.665Z,20.00
2018-02-13T08:40:03.657Z,14.40
2018-02-13T08:41:03.646Z,18.10
2018-02-13T08:42:03.636Z,17.60
2018-02-13T08:43:03.631Z,18.90
2018-02-13T08:44:03.618Z,16.70
2018-02-13T08:45:03.615Z,14.10
2018-02-13T08:46:03.600Z,16.50
2018-02-13T08:47:03.597Z,18.70
2018-02-13T08:48:03.589Z,24.40
2018-02-13T08:49:03.573Z,18.90
2018-02-13T08:50:03.562Z,16.30
2018-02-13T08:51:03.553Z,15.70
2018-02-13T08:52:03.545Z,20.80
2018-02-13T08:53:03.539Z,17.90
2018-02-13T08:54:03.527Z,15.50
2018-02-13T08:55:03.518Z,17.80
2018-02-13T08:56:03.507Z,18.40
2018-02-13T08:57:03.497Z,17.90
2018-02-13T08:58:03.488Z,15.50
2018-02-13T08:59:03.484Z,17.60
2018-02-13T09:00:03.471Z,21.30
2018-02-13T09:01:03.463Z,18.50
2018-02-13T09:02:03.454Z,15.90
2018-02-13T09:03:03.443Z,15.80
2018-02-13T09:04:03.433Z,18.10
2018-02-13T09:05:03.425Z,15.70
2018-02-13T09:06:03.414Z,18.20
2018-02-13T09:07:03.407Z,18.30
2018-02-13T09:08:03.408Z,18.70
2018-02-13T09:09:03.386Z,16.40
2018-02-13T09:10:03.379Z,16.40
2018-02-13T09:11:03.372Z,19.00
2018-02-13T09:12:03.360Z,16.00
2018-02-13T09:13:03.759Z,17.90
2018-02-13T09:14:03.341Z,17.10
2018-02-13T09:15:03.341Z,15.60
2018-02-13T09:16:03.323Z,18.30
2018-02-13T09:17:03.315Z,17.00
2018-02-13T09:18:03.475Z,17.30
2018-02-13T09:19:03.296Z,15.70
2018-02-13T09:20:03.300Z,17.50
2018-02-13T09:21:03.280Z,18.60
2018-02-13T09:22:03.326Z,16.70
2018-02-13T09:23:03.276Z,16.10
2018-02-13T09:24:03.251Z,21.20
2018-02-13T09:25:03.581Z,18.20
2018-02-13T09:26:03.233Z,18.90
2018-02-13T09:27:03.224Z,17.10
2018-02-13T09:28:03.217Z,17.40
2018-02-13T09:29:03.472Z,18.80
2018-02-13T09:30:03.200Z,18.50
2018-02-13T09:31:03.190Z,20.30
2018-02-13T09:32:03.180Z,23.10
2018-02-13T09:33:03.171Z,17.20
2018-02-13T09:34:03.744Z,16.90
2018-02-13T09:35:03.278Z,18.10
2018-02-13T09:36:03.147Z,19.30
2018-02-13T09:37:03.136Z,20.30
2018-02-13T09:38:03.129Z,21.40
2018-02-13T09:39:03.121Z,16.00
2018-02-13T09:40:03.110Z,17.40
2018-02-13T09:41:03.103Z,16.60
2018-02-13T09:42:03.092Z,21.10
2018-02-13T09:43:03.084Z,16.20
2018-02-13T09:44:03.076Z,17.40
2018-02-13T09:45:03.066Z,17.90
2018-02-13T09:46:03.057Z,15.60
2018-02-13T09:47:03.050Z,17.40
2018-02-13T09:48:03.044Z,16.40
2018-02-13T09:49:03.042Z,18.60
2018-02-13T09:50:03.025Z,15.20
2018-02-13T09:51:03.017Z,16.40
2018-02-13T09:52:03.227Z,20.90
2018-02-13T09:53:02.998Z,16.60
2018-02-13T09:54:03.168Z,22.80
2018-02-13T09:55:03.007Z,20.60
2018-02-13T09:56:02.974Z,16.10
2018-02-13T09:57:02.963Z,17.40
2018-02-13T09:58:03.564Z,18.00
2018-02-13T09:59:02.948Z,24.60
2018-02-13T10:00:02.940Z,15.80
2018-02-13T10:01:02.948Z,15.70
2018-02-13T10:02:02.920Z,17.30
2018-02-13T10:03:02.915Z,17.50
2018-02-13T10:04:02.910Z,19.40
2018-02-13T10:05:02.893Z,23.50
2018-02-13T10:06:02.887Z,16.60
2018-02-13T10:07:02.877Z,17.80
2018-02-13T10:08:02.873Z,19.20
2018-02-13T10:09:02.917Z,16.60
2018-02-13T10:10:02.918Z,16.70
2018-02-13T10:11:03.099Z,16.10
2018-02-13T10:12:03.068Z,15.40
2018-02-13T10:13:02.935Z,16.30
2018-02-13T10:14:02.817Z,16.00
2018-02-13T10:15:02.816Z,17.80
2018-02-13T10:16:02.803Z,21.30
2018-02-13T10:17:02.798Z,18.40
2018-02-13T10:18:02.963Z,20.60
2018-02-13T10:19:02.784Z,16.30
2018-02-13T10:20:02.771Z,19.00
2018-02-13T10:21:02.776Z,19.50
2018-02-13T10:22:02.756Z,19.30
2018-02-13T10:23:02.790Z,18.90
2018-02-13T10:24:02.738Z,18.60
2018-02-13T10:25:02.748Z,16.70
2018-02-13T10:26:02.777Z,19.40
2018-02-13T10:27:03.017Z,20.10
2018-02-13T10:28:02.776Z,17.20
2018-02-13T10:29:02.693Z,18.30
2018-02-13T10:30:02.686Z,17.10
2018-02-13T10:31:02.678Z,20.30
2018-02-13T10:32:02.730Z,16.50
2018-02-13T10:33:02.660Z,17.30
2018-02-13T10:34:02.654Z,23.80
2018-02-13T10:35:02.645Z,18.10
2018-02-13T10:36:02.636Z,20.30
2018-02-13T10:37:02.628Z,18.70
2018-02-13T10:38:02.621Z,17.60
2018-02-13T10:39:02.613Z,18.10
2018-02-13T10:40:02.603Z,17.50
2018-02-13T10:41:03.516Z,16.90
2018-02-13T10:42:02.952Z,17.20
2018-02-13T10:43:02.581Z,16.20
2018-02-13T10:44:02.708Z,17.70
2018-02-13T10:45:02.573Z,17.50
2018-02-13T10:46:02.574Z,15.30
2018-02-13T10:47:02.572Z,19.30
2018-02-13T10:48:02.599Z,13.40
2018-02-13T10:49:02.532Z,18.10
2018-02-13T10:50:03.539Z,15.30
2018-02-13T10:51:03.029Z,16.40
2018-02-13T10:52:02.513Z,17.60
2018-02-13T10:53:02.506Z,21.40
2018-02-13T10:54:02.492Z,15.10
2018-02-13T10:55:02.487Z,17.40
2018-02-13T10:56:02.605Z,20.70
2018-02-13T10:57:02.472Z,19.60
2018-02-13T10:58:02.459Z,17.20
2018-02-13T10:59:02.477Z,19.30
2018-02-13T11:00:02.763Z,18.90
2018-02-13T11:01:02.436Z,16.50
2018-02-13T11:02:02.433Z,19.50
2018-02-13T11:03:02.423Z,16.70
2018-02-13T11:04:02.414Z,18.90
2018-02-13T11:05:02.526Z,18.70
2018-02-13T11:06:02.397Z,17.00
2018-02-13T11:07:02.391Z,16.10
2018-02-13T11:08:02.382Z,14.00
2018-02-13T11:09:02.381Z,19.00
2018-02-13T11:10:02.380Z,21.00
2018-02-13T11:11:02.360Z,18.00
2018-02-13T11:12:02.352Z,13.80
2018-02-13T11:13:02.344Z,19.20
2018-02-13T11:14:02.343Z,17.10
2018-02-13T11:15:02.401Z,15.80
2018-02-13T11:16:03.244Z,13.60
2018-02-13T11:17:03.241Z,16.90
2018-02-13T11:18:02.311Z,17.30
2018-02-13T11:19:02.346Z,18.60
2018-02-13T11:20:02.735Z,17.70
2018-02-13T11:21:02.283Z,16.70
2018-02-13T11:22:02.296Z,17.70
2018-02-13T11:23:02.267Z,17.20
2018-02-13T11:24:02.608Z,16.80
2018-02-13T11:25:03.251Z,21.20
2018-02-13T11:26:02.250Z,15.40
2018-02-13T11:27:02.239Z,13.60
2018-02-13T11:28:02.296Z,12.80
2018-02-13T11:29:02.247Z,15.80
2018-02-13T11:30:02.323Z,18.40
2018-02-13T11:31:02.229Z,23.00
2018-02-13T11:32:02.211Z,14.30
2018-02-13T11:33:02.242Z,13.20
2018-02-13T11:34:02.188Z,11.70
2018-02-13T11:35:02.177Z,11.30
2018-02-13T11:36:02.172Z,14.60
2018-02-13T11:37:02.164Z,13.00
2018-02-13T11:38:02.158Z,13.40
2018-02-13T11:39:02.148Z,13.80
2018-02-13T11:40:02.141Z,16.00
2018-02-13T11:41:02.167Z,13.50
2018-02-13T11:42:02.126Z,11.70
2018-02-13T11:43:02.119Z,12.70
2018-02-13T11:44:02.111Z,12.30
2018-02-13T11:45:02.111Z,12.10
2018-02-13T11:46:02.168Z,10.90
2018-02-13T11:47:02.109Z,14.10
2018-02-13T11:48:02.083Z,13.30
2018-02-13T11:49:02.074Z,14.10
2018-02-13T11:50:02.072Z,18.70
2018-02-13T11:51:02.088Z,15.50
2018-02-13T11:52:02.062Z,18.20
2018-02-13T11:53:02.046Z,15.10
2018-02-13T11:54:02.041Z,11.00
2018-02-13T11:55:02.039Z,17.70
2018-02-13T11:56:02.027Z,15.50
2018-02-13T11:57:02.017Z,13.10
2018-02-13T11:58:02.012Z,12.60
2018-02-13T11:59:02.005Z,14.00
2018-02-13T12:00:02.013Z,15.40
2018-02-13T12:01:02.007Z,15.60
2018-02-13T12:02:01.988Z,11.50
2018-02-13T12:03:01.975Z,15.10
2018-02-13T12:04:01.972Z,17.00
2018-02-13T12:05:01.961Z,19.10
2018-02-13T12:06:01.964Z,11.00
2018-02-13T12:07:01.947Z,12.60
2018-02-13T12:08:01.940Z,12.90
2018-02-13T12:09:01.936Z,14.60
2018-02-13T12:10:01.928Z,13.60
2018-02-13T12:11:01.957Z,14.10
2018-02-13T12:12:01.913Z,14.30
2018-02-13T12:13:01.905Z,12.40
2018-02-13T12:14:01.903Z,8.80
2018-02-13T12:15:01.892Z,14.40
2018-02-13T12:16:01.886Z,16.30
2018-02-13T12:17:01.880Z,12.00
2018-02-13T12:18:02.002Z,16.10
2018-02-13T12:19:01.866Z,19.70
2018-02-13T12:20:01.866Z,16.80
2018-02-13T12:21:01.852Z,11.10
2018-02-13T12:22:01.844Z,10.60
2018-02-13T12:23:01.838Z,14.50
2018-02-13T12:24:01.832Z,11.90
2018-02-13T12:25:01.833Z,18.10
2018-02-13T12:26:01.823Z,13.20
2018-02-13T12:27:01.812Z,11.30
2018-02-13T12:28:01.805Z,7.00
2018-02-13T12:29:01.806Z,9.20
2018-02-13T12:30:01.793Z,12.80
2018-02-13T12:31:01.800Z,6.40
2018-02-13T12:32:01.778Z,10.70
2018-02-13T12:33:01.770Z,9.40
2018-02-13T12:34:01.773Z,15.00
2018-02-13T12:35:01.763Z,11.90
2018-02-13T12:36:01.752Z,14.30
2018-02-13T12:37:01.750Z,11.60
2018-02-13T12:38:01.740Z,14.20
2018-02-13T12:39:01.773Z,10.30
2018-02-13T12:40:01.728Z,8.40
2018-02-13T12:41:01.733Z,10.60
2018-02-13T12:42:01.713Z,8.50
2018-02-13T12:43:01.708Z,12.90
2018-02-13T12:44:01.718Z,8.80
2018-02-13T12:45:01.695Z,10.30
2018-02-13T12:46:01.689Z,14.30
2018-02-13T12:47:01.684Z,9.50
2018-02-13T12:48:01.885Z,7.90
2018-02-13T12:49:01.687Z,7.60
2018-02-13T12:50:01.666Z,7.30
2018-02-13T12:51:01.819Z,8.10
2018-02-13T12:52:01.831Z,14.90
2018-02-13T12:53:01.646Z,10.80